createdAt,value
2018-06-11T00:02:16.009Z,19.70
2018-06-11T00:05:49.252Z,22.27
2018-06-11T00:09:22.502Z,20.47
2018-06-11T00:12:55.724Z,19.83
2018-06-11T00:16:29.037Z,21.97
2018-06-11T00:20:02.285Z,21.93
2018-06-11T00:23:35.536Z,23.83
2018-06-11T00:27:08.778Z,21.70
2018-06-11T00:30:42.022Z,20.93
2018-06-11T00:34:15.265Z,24.60
2018-06-11T00:37:48.501Z,24.80
2018-06-11T00:41:21.744Z,24.70
2018-06-11T00:44:55.000Z,21.87
2018-06-11T00:48:28.236Z,25.23
2018-06-11T00:52:01.492Z,26.17
2018-06-11T00:55:46.269Z,22.80
2018-06-11T00:59:19.508Z,24.87
2018-06-11T01:02:53.188Z,25.20
2018-06-11T01:06:26.441Z,24.07
2018-06-11T01:09:59.692Z,23.97
2018-06-11T01:13:32.919Z,24.70
2018-06-11T01:17:06.177Z,24.57
2018-06-11T01:20:39.419Z,24.53
2018-06-11T01:24:12.665Z,25.33
2018-06-11T01:27:45.903Z,31.87
2018-06-11T01:31:19.132Z,29.87
2018-06-11T01:34:52.376Z,29.33
2018-06-11T01:38:25.596Z,28.37
2018-06-11T01:41:58.584Z,27.30
2018-06-11T01:45:31.847Z,31.93
2018-06-11T01:49:05.101Z,30.37
2018-06-11T01:52:38.337Z,29.63
2018-06-11T01:56:11.575Z,22.53
2018-06-11T01:59:44.845Z,28.00
2018-06-11T02:03:18.087Z,24.13
2018-06-11T02:06:51.080Z,24.83
2018-06-11T02:10:24.325Z,22.73
2018-06-11T02:13:57.544Z,20.77
2018-06-11T02:17:30.784Z,23.40
2018-06-11T02:21:04.026Z,21.70
2018-06-11T02:24:37.263Z,24.07
2018-06-11T02:28:10.690Z,28.47
2018-06-11T02:31:43.944Z,28.87
2018-06-11T02:35:17.184Z,27.43
2018-06-11T02:38:50.410Z,25.23
2018-06-11T02:42:23.663Z,26.17
2018-06-11T02:45:56.900Z,24.07
2018-06-11T02:49:30.129Z,24.50
2018-06-11T02:53:03.368Z,25.97
2018-06-11T02:56:36.604Z,22.73
2018-06-11T03:00:09.841Z,27.97
2018-06-11T03:03:43.163Z,27.73
2018-06-11T03:07:16.413Z,30.67
2018-06-11T03:10:49.652Z,28.90
2018-06-11T03:14:22.883Z,29.93
2018-06-11T03:17:56.116Z,29.27
2018-06-11T03:21:29.352Z,28.23
2018-06-11T03:25:02.610Z,30.73
2018-06-11T03:28:35.834Z,31.30
2018-06-11T03:32:09.073Z,27.97
2018-06-11T03:35:42.349Z,23.80
2018-06-11T03:39:15.590Z,20.07
2018-06-11T03:42:48.813Z,26.13
2018-06-11T03:46:22.060Z,25.00
2018-06-11T03:49:55.313Z,23.37
2018-06-11T03:53:28.536Z,26.30
2018-06-11T03:57:01.787Z,27.23
2018-06-11T04:00:35.047Z,32.70
2018-06-11T04:04:08.272Z,30.70
2018-06-11T04:07:41.530Z,27.80
2018-06-11T04:11:14.854Z,22.50
2018-06-11T04:14:48.098Z,24.83
2018-06-11T04:18:21.327Z,23.73
2018-06-11T04:21:54.568Z,25.60
2018-06-11T04:25:27.580Z,23.37
2018-06-11T04:29:00.829Z,25.17
2018-06-11T04:32:34.068Z,30.37
2018-06-11T04:36:07.051Z,28.47
2018-06-11T04:39:40.284Z,28.87
2018-06-11T04:43:13.535Z,29.17
2018-06-11T04:46:46.784Z,29.67
2018-06-11T04:50:20.020Z,29.40
2018-06-11T04:53:53.254Z,25.73
2018-06-11T04:57:26.252Z,23.83
2018-06-11T05:00:59.492Z,29.00
2018-06-11T05:04:32.725Z,28.57
2018-06-11T05:08:05.963Z,32.87
2018-06-11T05:11:39.256Z,31.40
2018-06-11T05:15:12.497Z,31.73
2018-06-11T05:18:45.727Z,32.13
2018-06-11T05:22:18.980Z,29.70
2018-06-11T05:25:52.220Z,31.43
2018-06-11T05:29:25.456Z,31.13
2018-06-11T05:32:58.688Z,29.47
2018-06-11T05:36:31.973Z,28.83
2018-06-11T05:40:05.240Z,28.23
2018-06-11T05:43:38.510Z,27.80
2018-06-11T05:47:11.836Z,28.83
2018-06-11T05:50:45.090Z,28.00
2018-06-11T05:54:18.312Z,29.27
2018-06-11T05:57:51.564Z,29.03
2018-06-11T06:01:24.799Z,26.50
2018-06-11T06:04:58.025Z,26.47
2018-06-11T06:08:31.264Z,28.17
2018-06-11T06:12:04.512Z,29.00
2018-06-11T06:15:37.775Z,26.87
2018-06-11T06:19:11.325Z,26.73
2018-06-11T06:22:44.563Z,26.50
2018-06-11T06:26:17.834Z,22.20
2018-06-11T06:29:50.823Z,27.80
2018-06-11T06:33:24.072Z,28.10
2018-06-11T06:36:57.329Z,29.37
2018-06-11T06:40:30.608Z,27.30
2018-06-11T06:44:03.868Z,26.33
2018-06-11T06:47:37.121Z,27.43
2018-06-11T06:51:10.392Z,25.53
2018-06-11T06:54:43.640Z,24.70
2018-06-11T06:58:16.929Z,25.40
2018-06-11T07:01:49.927Z,23.07
2018-06-11T07:05:23.159Z,28.87
2018-06-11T07:08:56.414Z,24.20
2018-06-11T07:12:29.679Z,24.17
2018-06-11T07:16:02.947Z,23.67
2018-06-11T07:19:36.246Z,23.53
2018-06-11T07:23:09.497Z,24.77
2018-06-11T07:26:42.748Z,25.07
2018-06-11T07:30:16.009Z,26.13
2018-06-11T07:33:49.253Z,28.00
2018-06-11T07:37:22.511Z,25.90
2018-06-11T07:40:55.784Z,25.83
2018-06-11T07:44:29.031Z,22.10
2018-06-11T07:48:02.083Z,20.67
2018-06-11T07:51:35.283Z,22.83
2018-06-11T07:55:08.531Z,20.00
2018-06-11T07:58:42.296Z,20.87
2018-06-11T08:02:15.536Z,18.30
2018-06-11T08:05:48.540Z,19.73
2018-06-11T08:09:21.797Z,15.50
2018-06-11T08:12:55.068Z,18.23
2018-06-11T08:16:28.332Z,16.83
2018-06-11T08:20:01.585Z,19.10
2018-06-11T08:23:34.831Z,17.77
2018-06-11T08:27:07.840Z,17.27
2018-06-11T08:30:41.092Z,16.10
2018-06-11T08:34:14.349Z,17.40
2018-06-11T08:37:47.601Z,20.90
2018-06-11T08:41:20.867Z,17.13
2018-06-11T08:44:54.129Z,17.83
2018-06-11T08:48:27.376Z,14.70
2018-06-11T08:52:00.639Z,18.10
2018-06-11T08:55:33.909Z,17.30
2018-06-11T08:59:07.149Z,17.50
2018-06-11T09:02:40.401Z,16.47
2018-06-11T09:06:13.680Z,16.07
2018-06-11T09:09:46.948Z,15.70
2018-06-11T09:13:20.209Z,16.40
2018-06-11T09:16:53.489Z,16.00
2018-06-11T09:20:26.744Z,15.03
2018-06-11T09:23:59.987Z,16.73
2018-06-11T09:27:33.241Z,16.07
2018-06-11T09:31:06.565Z,15.40
2018-06-11T09:34:39.797Z,12.00
2018-06-11T09:38:13.089Z,13.97
2018-06-11T09:41:46.379Z,12.53
2018-06-11T09:45:19.631Z,12.77
2018-06-11T09:48:52.916Z,12.37
2018-06-11T09:52:26.172Z,12.63
2018-06-11T09:55:59.412Z,13.50
2018-06-11T09:59:32.701Z,12.37
2018-06-11T10:03:05.952Z,11.00
2018-06-11T10:06:39.195Z,12.37
2018-06-11T10:10:12.493Z,13.00
2018-06-11T10:13:45.744Z,12.10
2018-06-11T10:17:19.012Z,11.40
2018-06-11T10:20:52.277Z,13.20
2018-06-11T10:24:25.522Z,12.47
2018-06-11T10:27:58.517Z,12.13
2018-06-11T10:31:31.531Z,12.60
2018-06-11T10:35:04.810Z,11.80
2018-06-11T10:38:37.825Z,11.50
2018-06-11T10:42:11.100Z,11.00
2018-06-11T10:45:44.369Z,12.10
2018-06-11T10:49:17.628Z,12.27
2018-06-11T10:52:50.892Z,12.50
2018-06-11T10:56:24.152Z,10.87
2018-06-11T10:59:57.403Z,10.50
2018-06-11T11:03:30.633Z,9.57
2018-06-11T11:07:03.912Z,6.87
2018-06-11T11:10:37.175Z,6.93
2018-06-11T11:14:10.419Z,6.00
2018-06-11T11:17:43.665Z,4.93
2018-06-11T11:21:16.928Z,7.40
2018-06-11T11:24:50.179Z,5.27
2018-06-11T11:28:23.427Z,10.00
2018-06-11T11:31:56.692Z,8.93
2018-06-11T11:35:29.941Z,4.80
2018-06-11T11:39:03.229Z,6.37
2018-06-11T11:42:36.752Z,6.10
2018-06-11T11:46:10.004Z,6.90
2018-06-11T11:49:43.243Z,6.13
2018-06-11T11:53:16.499Z,8.30
2018-06-11T11:56:49.756Z,7.23
2018-06-11T12:00:22.996Z,9.40
2018-06-11T12:03:56.258Z,8.37
2018-06-11T12:07:29.533Z,8.60
2018-06-11T12:11:02.513Z,8.57
2018-06-11T12:14:35.536Z,9.40
2018-06-11T12:18:08.798Z,9.60
2018-06-11T12:21:41.787Z,10.47
2018-06-11T12:25:15.042Z,9.53
2018-06-11T12:28:48.300Z,10.17
2018-06-11T12:32:21.576Z,9.90
2018-06-11T12:35:54.868Z,10.83
2018-06-11T12:39:28.138Z,9.87
2018-06-11T12:43:01.389Z,10.27
2018-06-11T12:46:34.386Z,11.30
2018-06-11T12:50:07.392Z,10.70
2018-06-11T12:53:40.381Z,10.50
2018-06-11T12:57:13.626Z,9.00
2018-06-11T13:00:46.881Z,9.00
2018-06-11T13:04:19.863Z,9.23
2018-06-11T13:07:53.704Z,10.40
2018-06-11T13:11:26.955Z,9.27
2018-06-11T13:15:00.215Z,8.47
2018-06-11T13:18:33.452Z,12.17
2018-06-11T13:22:06.738Z,8.30
2018-06-11T13:25:39.969Z,13.73
2018-06-11T13:29:13.220Z,7.70
2018-06-11T13:32:46.522Z,7.87
2018-06-11T13:36:19.737Z,12.17
2018-06-11T13:39:53.006Z,6.53
2018-06-11T13:43:26.284Z,6.03
2018-06-11T13:46:59.271Z,6.87
2018-06-11T13:50:32.528Z,8.00
2018-06-11T13:54:05.820Z,8.00
2018-06-11T13:57:39.102Z,11.33
2018-06-11T14:01:12.357Z,7.00
2018-06-11T14:04:45.616Z,7.67
2018-06-11T14:08:18.853Z,7.20
2018-06-11T14:11:52.121Z,7.90
2018-06-11T14:15:25.365Z,8.50
2018-06-11T14:18:58.622Z,8.70
2018-06-11T14:22:31.865Z,6.93
2018-06-11T14:26:05.113Z,8.57
2018-06-11T14:29:38.348Z,8.30
2018-06-11T14:33:11.615Z,7.27
2018-06-11T14:36:44.896Z,7.10
2018-06-11T14:40:18.141Z,8.03
2018-06-11T14:43:51.398Z,7.83
2018-06-11T14:47:24.636Z,7.53
2018-06-11T14:50:57.893Z,8.23
2018-06-11T14:54:31.143Z,7.67
2018-06-11T14:58:04.454Z,8.00
2018-06-11T15:01:37.744Z,8.67
2018-06-11T15:05:10.981Z,6.97
2018-06-11T15:08:43.988Z,8.80
2018-06-11T15:12:17.230Z,9.90
2018-06-11T15:15:50.528Z,11.00
2018-06-11T15:19:23.754Z,10.10
2018-06-11T15:22:56.996Z,9.87
2018-06-11T15:26:30.217Z,9.50
2018-06-11T15:30:03.485Z,12.20
2018-06-11T15:33:36.726Z,12.50
2018-06-11T15:37:10.007Z,12.03
2018-06-11T15:40:43.269Z,10.60
2018-06-11T15:44:16.245Z,9.83
2018-06-11T15:47:49.477Z,9.97
2018-06-11T15:51:22.785Z,10.43
2018-06-11T15:54:56.024Z,9.90
2018-06-11T15:58:29.295Z,9.43
2018-06-11T16:02:02.548Z,10.90
2018-06-11T16:05:35.789Z,12.53
2018-06-11T16:09:09.377Z,10.97
2018-06-11T16:12:42.635Z,13.80
2018-06-11T16:16:15.887Z,12.80
2018-06-11T16:19:49.112Z,13.73
2018-06-11T16:23:22.372Z,16.73
2018-06-11T16:26:55.612Z,15.90
2018-06-11T16:30:28.895Z,15.30
2018-06-11T16:34:02.157Z,15.53
2018-06-11T16:37:35.483Z,16.40
2018-06-11T16:41:08.730Z,15.30
2018-06-11T16:44:41.979Z,15.37
2018-06-11T16:48:15.208Z,15.17
2018-06-11T16:51:48.458Z,16.27
2018-06-11T16:55:21.720Z,15.77
2018-06-11T16:58:54.972Z,15.63
2018-06-11T17:02:28.238Z,14.87
2018-06-11T17:06:01.486Z,18.33
2018-06-11T17:09:34.731Z,18.10
2018-06-11T17:13:08.009Z,16.80
2018-06-11T17:16:41.248Z,18.60
2018-06-11T17:20:14.514Z,17.20
2018-06-11T17:23:48.564Z,17.10
2018-06-11T17:27:21.864Z,18.67
2018-06-11T17:30:55.112Z,15.17
2018-06-11T17:34:28.350Z,13.97
2018-06-11T17:38:01.780Z,15.80
2018-06-11T17:41:34.782Z,15.20
2018-06-11T17:45:08.189Z,17.93
2018-06-11T17:48:41.157Z,18.53
2018-06-11T17:52:14.423Z,18.70
2018-06-11T17:55:48.103Z,22.53
2018-06-11T17:59:21.436Z,23.33
2018-06-11T18:02:54.772Z,24.67
2018-06-11T18:06:28.016Z,23.30
2018-06-11T18:10:01.312Z,26.13
2018-06-11T18:13:34.580Z,25.90
2018-06-11T18:17:07.833Z,25.03
2018-06-11T18:20:41.149Z,25.73
2018-06-11T18:24:14.325Z,30.57
2018-06-11T18:27:47.577Z,31.10
2018-06-11T18:31:20.813Z,28.27
2018-06-11T18:34:54.056Z,29.37
2018-06-11T18:38:27.317Z,23.63
2018-06-11T18:42:00.602Z,22.70
2018-06-11T18:45:33.821Z,22.17
2018-06-11T18:49:07.053Z,20.53
2018-06-11T18:52:40.292Z,19.60
2018-06-11T18:56:13.771Z,16.87
2018-06-11T18:59:47.069Z,17.00
2018-06-11T19:03:21.311Z,13.13
2018-06-11T19:06:54.615Z,13.57
2018-06-11T19:10:27.913Z,10.80
2018-06-11T19:14:11.460Z,12.17
2018-06-11T19:17:44.985Z,11.60
2018-06-11T19:21:18.450Z,11.60
2018-06-11T19:24:51.818Z,12.53
2018-06-11T19:28:26.418Z,11.77
2018-06-11T19:31:59.848Z,11.00
2018-06-11T19:35:33.188Z,13.00
2018-06-11T19:39:07.419Z,12.70
2018-06-11T19:42:40.773Z,12.93
2018-06-11T19:46:14.049Z,14.33
2018-06-11T19:49:47.341Z,14.60
2018-06-11T19:53:21.673Z,16.53
2018-06-11T19:56:55.033Z,14.20
2018-06-11T20:00:28.333Z,13.87
2018-06-11T20:04:01.583Z,15.00
2018-06-11T20:07:34.840Z,18.50
2018-06-11T20:11:08.167Z,17.87
2018-06-11T20:14:41.576Z,13.83
2018-06-11T20:18:14.884Z,13.90
2018-06-11T20:21:48.164Z,14.23
2018-06-11T20:25:21.442Z,14.20
2018-06-11T20:28:54.760Z,17.27
2018-06-11T20:32:28.090Z,14.50
2018-06-11T20:36:01.323Z,15.63
2018-06-11T20:39:34.656Z,15.07
2018-06-11T20:43:07.944Z,15.23
2018-06-11T20:46:41.222Z,15.90
2018-06-11T20:50:14.465Z,15.20
2018-06-11T20:53:47.705Z,15.40
2018-06-11T20:57:20.965Z,14.43
2018-06-11T21:00:54.243Z,16.00
2018-06-11T21:04:28.355Z,14.60
2018-06-11T21:08:01.656Z,14.87
2018-06-11T21:11:34.954Z,13.83
2018-06-11T21:15:08.221Z,14.87
2018-06-11T21:18:41.473Z,14.07
2018-06-11T21:22:14.761Z,17.10
2018-06-11T21:25:48.042Z,13.60
2018-06-11T21:29:21.299Z,14.50
2018-06-11T21:32:54.363Z,14.30
2018-06-11T21:36:27.638Z,14.67
2018-06-11T21:40:00.930Z,13.50
2018-06-11T21:43:34.199Z,13.67
2018-06-11T21:47:07.191Z,13.60
2018-06-11T21:50:40.446Z,12.80
2018-06-11T21:54:13.692Z,14.97
2018-06-11T21:57:46.688Z,13.90
2018-06-11T22:01:19.671Z,12.80
2018-06-11T22:04:52.936Z,16.20
2018-06-11T22:08:26.201Z,12.63
2018-06-11T22:11:59.505Z,17.63
2018-06-11T22:15:32.780Z,13.70
2018-06-11T22:19:05.779Z,13.23
2018-06-11T22:22:39.022Z,15.87
2018-06-11T22:26:12.283Z,16.17
2018-06-11T22:29:45.277Z,13.40
2018-06-11T22:33:18.551Z,12.20
2018-06-11T22:36:51.912Z,12.17
2018-06-11T22:40:25.179Z,14.17
2018-06-11T22:43:58.191Z,12.07
2018-06-11T22:47:31.548Z,11.90
2018-06-11T22:51:04.808Z,11.17
2018-06-11T22:54:38.079Z,11.80
2018-06-11T22:58:11.083Z,11.10
2018-06-11T23:01:44.325Z,12.17
2018-06-11T23:05:17.609Z,14.70
2018-06-11T23:08:50.850Z,10.80
2018-06-11T23:12:24.126Z,11.77
2018-06-11T23:15:57.405Z,11.90
2018-06-11T23:19:30.671Z,11.30
2018-06-11T23:23:03.672Z,9.93
2018-06-11T23:26:36.932Z,11.27
2018-06-11T23:30:10.193Z,9.87
2018-06-11T23:33:43.440Z,11.67
2018-06-11T23:37:16.701Z,11.57
2018-06-11T23:40:49.961Z,11.57
2018-06-11T23:44:23.207Z,10.63
2018-06-11T23:47:56.458Z,11.30
2018-06-11T23:51:29.456Z,12.33
2018-06-11T23:55:02.724Z,11.17
2018-06-11T23:58:35.972Z,10.50
